Time;durP1;ratioP1;P1;durP2;ratioP2;P2;SDS_P1;SDS_P2;PMS_P1;PMS_P2;Temp;Humidity;BMP_temperature;BMP_pressure;BME280_temperature;BME280_humidity;BME280_pressure;Samples;Min_cycle;Max_cycle;Signal;HPM_P1;HPM_P2
2022/12/14 00:00:23;;;;;;;105.80;40.40;;;;;;;-7.23;79.39;99936.00;103036;1306;22683;-60
2022/12/14 00:03:15;;;;;;;104.50;40.50;;;;;;;-7.31;79.70;99931.80;102989;1284;22997;-61
2022/12/14 00:05:46;;;;;;;93.60;39.00;;;;;;;-7.36;79.71;99925.76;103081;1306;22625;-60
2022/12/14 00:08:18;;;;;;;104.50;39.90;;;;;;;-7.41;79.74;99927.23;103090;1306;22559;-61
2022/12/14 00:10:50;;;;;;;105.80;45.70;;;;;;;-7.46;79.63;99917.41;103082;1299;24450;-60
2022/12/14 00:13:21;;;;;;;101.80;41.40;;;;;;;-7.48;79.79;99914.82;103270;1282;24455;-59
2022/12/14 00:15:52;;;;;;;119.30;45.40;;;;;;;-7.51;79.78;99906.51;103150;1306;25513;-59
2022/12/14 00:18:24;;;;;;;131.20;46.90;;;;;;;-7.54;79.69;99900.71;103156;1308;21790;-60
2022/12/14 00:21:02;;;;;;;130.30;47.60;;;;;;;-7.58;79.70;99898.64;103325;1276;21763;-59
2022/12/14 00:23:34;;;;;;;136.20;48.70;;;;;;;-7.60;79.75;99896.45;103180;1298;22560;-60
2022/12/14 00:26:14;;;;;;;145.40;48.20;;;;;;;-7.62;79.61;99899.99;103152;1288;24262;-60
2022/12/14 00:28:47;;;;;;;119.90;48.40;;;;;;;-7.65;79.52;99903.75;102942;1306;22613;-61
2022/12/14 00:31:19;;;;;;;105.00;45.30;;;;;;;-7.67;79.59;99903.41;103044;1288;24324;-60
2022/12/14 00:33:52;;;;;;;117.80;45.40;;;;;;;-7.68;79.58;99904.63;103102;1282;24295;-61
2022/12/14 00:36:23;;;;;;;115.10;44.20;;;;;;;-7.73;79.22;99902.85;103003;1299;22580;-60
2022/12/14 00:38:55;;;;;;;116.70;45.10;;;;;;;-7.78;79.36;99899.59;103016;1306;22509;-58
2022/12/14 00:41:26;;;;;;;112.70;45.70;;;;;;;-7.79;79.80;99896.17;103225;1289;23013;-61
2022/12/14 00:44:00;;;;;;;118.10;45.20;;;;;;;-7.79;79.96;99895.40;102996;1274;24701;-60
2022/12/14 00:46:32;;;;;;;111.60;42.60;;;;;;;-7.81;79.85;99900.09;102984;1305;22507;-61
2022/12/14 00:49:03;;;;;;;120.90;43.50;;;;;;;-7.82;79.93;99896.83;103102;1282;21837;-61
2022/12/14 00:51:35;;;;;;;105.90;41.40;;;;;;;-7.83;79.87;99891.95;102234;1281;1300603;-60
2022/12/14 00:54:06;;;;;;;111.20;44.50;;;;;;;-7.85;79.69;99891.20;103100;1282;22560;-60
2022/12/14 00:56:39;;;;;;;100.90;41.60;;;;;;;-7.87;79.91;99891.55;103114;1306;25271;-61
2022/12/14 00:59:11;;;;;;;97.70;39.70;;;;;;;-7.88;79.83;99897.83;103175;1291;22510;-61
2022/12/14 01:01:42;;;;;;;103.60;40.40;;;;;;;-7.90;79.71;99898.02;103411;1305;23002;-62
2022/12/14 01:04:21;;;;;;;103.90;40.60;;;;;;;-7.92;79.84;99889.33;103648;1306;26099;-62
2022/12/14 01:06:53;;;;;;;107.20;41.20;;;;;;;-7.99;79.46;99889.30;103514;1305;22552;-61
2022/12/14 01:09:27;;;;;;;111.20;41.30;;;;;;;-8.01;79.81;99895.98;103460;1283;21839;-62
2022/12/14 01:11:59;;;;;;;111.50;39.20;;;;;;;-8.03;79.73;99891.94;103538;1298;23083;-62
2022/12/14 01:14:30;;;;;;;99.50;40.90;;;;;;;-8.08;79.49;99886.98;103735;1282;25254;-62
2022/12/14 01:17:02;;;;;;;97.30;39.70;;;;;;;-8.10;79.74;99883.92;103463;1298;22487;-64
2022/12/14 01:19:33;;;;;;;97.40;40.10;;;;;;;-8.09;79.98;99884.11;103455;1282;21720;-63
2022/12/14 01:22:05;;;;;;;101.90;41.20;;;;;;;-8.09;79.55;99882.70;103471;1282;24319;-62
2022/12/14 01:24:36;;;;;;;106.90;39.50;;;;;;;-8.13;79.46;99880.41;103465;1306;25674;-63
2022/12/14 01:27:08;;;;;;;116.20;43.30;;;;;;;-8.14;79.23;99881.02;103489;1299;22689;-63
2022/12/14 01:29:40;;;;;;;114.40;43.00;;;;;;;-8.16;79.07;99883.67;103563;1306;23079;-63
2022/12/14 01:32:12;;;;;;;109.90;42.20;;;;;;;-8.18;79.18;99879.08;103500;1306;25832;-62
2022/12/14 01:34:43;;;;;;;107.20;41.50;;;;;;;-8.19;79.28;99877.14;103542;1282;22516;-62
2022/12/14 01:37:15;;;;;;;108.60;39.90;;;;;;;-8.17;79.55;99873.92;103495;1306;23047;-62
2022/12/14 01:39:47;;;;;;;107.00;40.20;;;;;;;-8.17;79.48;99871.13;103543;1282;21930;-61
2022/12/14 01:42:19;;;;;;;106.90;41.20;;;;;;;-8.16;79.25;99873.31;103472;1306;25260;-61
2022/12/14 01:44:57;;;;;;;112.80;42.40;;;;;;;-8.16;79.02;99868.65;103525;1306;23919;-60
2022/12/14 01:47:41;;;;;;;115.00;45.80;;;;;;;-8.17;78.80;99869.57;103797;1281;22471;-63
2022/12/14 01:50:20;;;;;;;120.40;48.10;;;;;;;-8.19;78.65;99864.21;103537;1306;24257;-61
2022/12/14 01:52:58;;;;;;;114.80;45.10;;;;;;;-8.20;78.65;99857.47;103421;1282;25416;-60
2022/12/14 01:55:33;;;;;;;127.80;48.10;;;;;;;-8.21;78.21;99853.80;103505;1301;22498;-61
2022/12/14 01:58:10;;;;;;;121.90;48.50;;;;;;;-8.30;77.91;99850.14;103495;1299;24266;-61
2022/12/14 02:00:43;;;;;;;125.70;47.90;;;;;;;-8.36;78.16;99854.47;103498;1281;22665;-61
2022/12/14 02:03:17;;;;;;;136.20;48.80;;;;;;;-8.36;78.29;99856.24;103457;1283;26178;-59
2022/12/14 02:05:52;;;;;;;123.90;47.80;;;;;;;-8.36;78.27;99852.92;103507;1306;22498;-62
2022/12/14 02:08:29;;;;;;;119.80;46.40;;;;;;;-8.35;78.35;99850.38;103653;1282;22236;-62
2022/12/14 02:11:02;;;;;;;122.10;48.40;;;;;;;-8.35;78.46;99848.27;103553;1274;21792;-62
2022/12/14 02:13:39;;;;;;;116.20;45.70;;;;;;;-8.37;78.36;99848.25;103500;1298;25268;-61
2022/12/14 02:16:10;;;;;;;123.20;44.00;;;;;;;-8.38;78.46;99846.30;103552;1280;22460;-62
2022/12/14 02:18:42;;;;;;;119.30;44.20;;;;;;;-8.38;78.45;99839.73;103731;1282;21759;-60
2022/12/14 02:21:23;;;;;;;127.60;49.50;;;;;;;-8.39;78.38;99838.80;103602;1281;22481;-61
2022/12/14 02:24:18;;;;;;;128.50;47.80;;;;;;;-8.39;78.37;99840.42;103618;1306;22594;-61
2022/12/14 02:27:13;;;;;;;115.90;46.30;;;;;;;-8.42;77.83;99840.21;103653;1306;22176;-63
2022/12/14 02:30:03;;;;;;;121.40;48.40;;;;;;;-8.48;77.74;99840.50;103794;1303;22511;-61
2022/12/14 02:32:50;;;;;;;136.10;51.20;;;;;;;-8.55;77.82;99842.85;103462;1306;22827;-62
2022/12/14 02:35:33;;;;;;;117.00;44.90;;;;;;;-8.60;77.74;99841.84;103325;1275;22469;-62
2022/12/14 02:38:14;;;;;;;131.40;49.30;;;;;;;-8.63;78.02;99842.63;103542;1303;22477;-62
2022/12/14 02:40:57;;;;;;;118.90;46.20;;;;;;;-8.65;77.85;99842.45;103545;1306;22828;-62
2022/12/14 02:43:33;;;;;;;126.70;47.70;;;;;;;-8.68;77.84;99841.15;103443;1281;22502;-60
2022/12/14 02:46:15;;;;;;;116.40;48.50;;;;;;;-8.74;77.72;99843.14;103482;1275;24228;-63
2022/12/14 02:48:53;;;;;;;122.40;46.80;;;;;;;-8.78;77.91;99839.59;103575;1280;22837;-63
2022/12/14 02:51:31;;;;;;;110.30;43.40;;;;;;;-8.80;78.07;99833.92;103585;1284;21856;-63
2022/12/14 02:54:07;;;;;;;113.30;45.50;;;;;;;-8.81;78.14;99832.65;103578;1303;24346;-64
2022/12/14 02:56:45;;;;;;;121.20;46.70;;;;;;;-8.84;78.19;99831.20;103581;1306;22517;-61
2022/12/14 02:59:18;;;;;;;120.70;47.50;;;;;;;-8.86;78.09;99830.63;103562;1282;25270;-61
2022/12/14 03:01:52;;;;;;;117.70;49.30;;;;;;;-8.88;78.21;99827.52;103516;1282;22451;-63
2022/12/14 03:04:26;;;;;;;112.20;44.40;;;;;;;-8.90;78.12;99826.08;103417;1298;25828;-61
2022/12/14 03:07:02;;;;;;;104.70;41.90;;;;;;;-8.94;77.93;99829.40;103555;1305;23205;-62
2022/12/14 03:09:34;;;;;;;109.50;40.70;;;;;;;-8.98;78.19;99832.89;103465;1306;23282;-63
2022/12/14 03:12:11;;;;;;;105.30;39.70;;;;;;;-8.99;78.38;99831.34;103526;1305;22510;-63
2022/12/14 03:14:46;;;;;;;109.90;41.90;;;;;;;-8.98;78.44;99827.26;103670;1305;22467;-63
2022/12/14 03:17:23;;;;;;;103.60;41.40;;;;;;;-8.97;78.55;99820.23;103701;1306;22483;-61
2022/12/14 03:19:57;;;;;;;120.30;47.30;;;;;;;-9.03;78.20;99820.59;103500;1297;22547;-63
2022/12/14 03:22:33;;;;;;;132.60;49.90;;;;;;;-9.09;78.29;99816.63;103546;1282;25358;-59
2022/12/14 03:25:13;;;;;;;117.30;45.00;;;;;;;-9.14;78.26;99808.89;103600;1305;23911;-60
2022/12/14 03:27:49;;;;;;;118.40;46.30;;;;;;;-9.17;78.27;99807.44;103525;1298;22695;-60
2022/12/14 03:30:23;;;;;;;118.10;43.60;;;;;;;-9.19;78.24;99808.48;103630;1306;23890;-63
2022/12/14 03:33:02;;;;;;;111.80;43.80;;;;;;;-9.22;78.22;99807.20;103786;1305;24931;-61
2022/12/14 03:35:38;;;;;;;124.90;51.50;;;;;;;-9.23;78.27;99805.94;103811;1281;25405;-61
2022/12/14 03:38:16;;;;;;;123.80;55.30;;;;;;;-9.25;78.37;99807.91;103514;1282;22471;-61
2022/12/14 03:40:56;;;;;;;141.50;59.60;;;;;;;-9.26;78.46;99808.73;103692;1303;21782;-59
2022/12/14 03:43:34;;;;;;;198.30;80.00;;;;;;;-9.27;78.34;99805.93;103562;1297;22471;-61
2022/12/14 03:46:12;;;;;;;296.50;120.00;;;;;;;-9.29;78.23;99809.83;103567;1306;23961;-60
2022/12/14 03:48:50;;;;;;;309.30;126.30;;;;;;;-9.34;78.25;99804.71;103530;1306;22616;-60
2022/12/14 03:51:28;;;;;;;251.90;103.80;;;;;;;-9.37;78.30;99803.35;103635;1306;22584;-60
2022/12/14 03:54:07;;;;;;;214.90;85.80;;;;;;;-9.40;78.17;99799.50;103517;1284;22666;-60
2022/12/14 03:56:45;;;;;;;217.90;89.20;;;;;;;-9.42;78.32;99794.29;103619;1298;22478;-62
2022/12/14 03:59:25;;;;;;;201.70;80.10;;;;;;;-9.43;78.72;99788.02;103603;1274;21731;-61
2022/12/14 04:02:04;;;;;;;155.80;62.90;;;;;;;-9.41;78.57;99788.81;103582;1282;25397;-61
2022/12/14 04:04:39;;;;;;;145.70;58.20;;;;;;;-9.44;78.28;99790.92;103678;1275;22506;-61
2022/12/14 04:07:17;;;;;;;151.80;58.70;;;;;;;-9.50;78.51;99791.17;103574;1282;22538;-61
2022/12/14 04:09:55;;;;;;;148.00;57.80;;;;;;;-9.51;78.60;99782.45;103527;1305;21793;-61
2022/12/14 04:21:17;;;;;;;139.10;56.10;;;;;;;-9.74;78.73;99760.45;103527;1282;22459;-61
2022/12/14 04:26:49;;;;;;;136.60;52.40;;;;;;;-9.79;79.49;99751.01;103443;1297;22449;-61
2022/12/14 04:32:18;;;;;;;130.40;48.60;;;;;;;-9.82;79.70;99744.08;103580;1300;21679;-62
2022/12/14 04:34:53;;;;;;;142.30;52.10;;;;;;;-9.83;79.55;99744.84;103543;1298;24263;-63
2022/12/14 04:37:28;;;;;;;139.10;55.40;;;;;;;-9.82;79.83;99738.77;103442;1280;22497;-60
2022/12/14 04:40:04;;;;;;;138.60;54.40;;;;;;;-9.82;79.69;99743.16;103514;1306;24244;-61
2022/12/14 04:42:48;;;;;;;134.10;52.70;;;;;;;-9.80;79.80;99750.29;103539;1282;21760;-61
2022/12/14 04:45:24;;;;;;;146.10;57.00;;;;;;;-9.80;79.68;99753.85;103569;1306;22512;-60
2022/12/14 04:48:03;;;;;;;144.30;55.80;;;;;;;-9.83;79.73;99747.77;103530;1306;22454;-60
2022/12/14 04:50:39;;;;;;;152.60;57.90;;;;;;;-9.86;79.68;99751.97;103602;1304;24772;-62
2022/12/14 04:53:15;;;;;;;142.20;59.40;;;;;;;-9.87;80.04;99747.94;103340;1274;22451;-66
2022/12/14 04:55:53;;;;;;;150.00;57.70;;;;;;;-9.86;79.90;99747.56;103470;1282;22599;-63
2022/12/14 04:58:28;;;;;;;146.70;58.00;;;;;;;-9.83;80.17;99742.75;103490;1282;22097;-61
2022/12/14 05:01:12;;;;;;;152.10;58.00;;;;;;;-9.83;79.89;99737.98;103533;1283;24755;-61
2022/12/14 05:03:54;;;;;;;149.40;61.00;;;;;;;-9.83;79.89;99736.52;103469;1282;24433;-60
2022/12/14 05:06:28;;;;;;;153.60;60.30;;;;;;;-9.79;80.24;99734.66;103554;1305;22456;-62
2022/12/14 05:09:20;;;;;;;155.80;62.20;;;;;;;-9.75;80.26;99728.48;103528;1291;24159;-61
2022/12/14 05:11:56;;;;;;;156.50;60.10;;;;;;;-9.72;80.16;99726.70;103746;1304;26624;-61
2022/12/14 05:14:34;;;;;;;151.70;62.10;;;;;;;-9.70;80.23;99723.25;103789;1275;25981;-61
2022/12/14 05:17:08;;;;;;;145.50;58.20;;;;;;;-9.73;80.23;99725.83;103542;1306;22445;-61
2022/12/14 05:19:46;;;;;;;152.60;60.20;;;;;;;-9.68;80.60;99723.77;103445;1297;25241;-58
2022/12/14 05:22:19;;;;;;;158.00;60.70;;;;;;;-9.67;80.41;99726.94;103603;1282;22448;-59
2022/12/14 05:24:51;;;;;;;152.10;58.40;;;;;;;-9.72;80.49;99714.88;103649;1282;22453;-56
2022/12/14 05:27:22;;;;;;;156.60;59.30;;;;;;;-9.69;80.68;99718.41;103738;1282;22455;-57
2022/12/14 05:29:53;;;;;;;152.30;62.30;;;;;;;-9.67;80.80;99719.84;103871;1306;22996;-59
2022/12/14 05:32:25;;;;;;;148.10;62.50;;;;;;;-9.63;80.74;99722.62;103641;1298;22451;-59
2022/12/14 05:34:56;;;;;;;159.70;64.00;;;;;;;-9.62;80.66;99720.86;103805;1282;22480;-57
2022/12/14 05:37:28;;;;;;;154.30;63.10;;;;;;;-9.60;80.70;99719.98;103769;1306;22456;-59
2022/12/14 05:40:00;;;;;;;156.10;62.20;;;;;;;-9.57;80.80;99714.27;103839;1282;25339;-56
2022/12/14 05:42:32;;;;;;;152.20;61.10;;;;;;;-9.56;80.78;99716.27;103761;1306;22553;-55
2022/12/14 05:45:04;;;;;;;147.80;59.70;;;;;;;-9.55;80.82;99714.59;103722;1274;25339;-56
2022/12/14 05:47:36;;;;;;;153.00;61.00;;;;;;;-9.54;80.72;99714.70;103875;1287;22553;-57
2022/12/14 05:50:09;;;;;;;130.90;56.50;;;;;;;-9.53;80.75;99716.73;104545;1282;23095;-56
2022/12/14 05:52:40;;;;;;;144.70;58.20;;;;;;;-9.50;80.63;99715.08;103855;1306;22446;-54
2022/12/14 05:55:13;;;;;;;139.80;56.30;;;;;;;-9.49;80.73;99707.92;103689;1306;22499;-55
2022/12/14 05:57:44;;;;;;;139.10;56.00;;;;;;;-9.46;80.81;99704.40;103827;1305;22469;-57
2022/12/14 06:00:18;;;;;;;147.60;58.10;;;;;;;-9.43;80.95;99705.17;104276;1297;21712;-56
2022/12/14 06:02:49;;;;;;;140.90;57.90;;;;;;;-9.41;80.86;99704.12;103848;1306;25260;-57
2022/12/14 06:05:21;;;;;;;137.10;56.50;;;;;;;-9.40;80.85;99701.83;103766;1304;22410;-56
2022/12/14 06:07:53;;;;;;;148.50;55.70;;;;;;;-9.40;80.81;99696.02;103663;1282;22737;-58
2022/12/14 06:10:26;;;;;;;129.10;55.10;;;;;;;-9.40;80.86;99693.02;103719;1282;23447;-55
2022/12/14 06:12:59;;;;;;;153.30;55.70;;;;;;;-9.40;80.71;99692.02;103861;1306;22446;-57
2022/12/14 06:15:30;;;;;;;145.70;54.40;;;;;;;-9.39;80.64;99693.66;103614;1275;27586;-56
2022/12/14 06:18:02;;;;;;;149.60;55.10;;;;;;;-9.39;80.73;99693.12;103741;1306;21709;-58
2022/12/14 06:20:33;;;;;;;141.00;53.00;;;;;;;-9.38;80.63;99689.57;103776;1305;24340;-57
2022/12/14 06:23:06;;;;;;;134.60;52.80;;;;;;;-9.36;81.02;99689.84;103790;1288;22395;-57
2022/12/14 06:25:37;;;;;;;145.70;55.20;;;;;;;-9.32;81.01;99684.89;103725;1305;22448;-56
2022/12/14 06:28:09;;;;;;;146.00;55.50;;;;;;;-9.31;80.64;99685.92;103719;1278;22386;-58
2022/12/14 06:30:41;;;;;;;140.00;54.30;;;;;;;-9.32;80.52;99685.29;104016;1275;24698;-58
2022/12/14 06:33:12;;;;;;;142.60;56.30;;;;;;;-9.32;80.58;99687.38;103788;1282;23047;-56
2022/12/14 06:35:46;;;;;;;133.00;55.40;;;;;;;-9.34;80.48;99682.34;103832;1306;22518;-58
2022/12/14 06:38:18;;;;;;;127.30;51.30;;;;;;;-9.35;80.68;99678.91;103689;1306;23050;-57
2022/12/14 06:40:49;;;;;;;148.50;58.80;;;;;;;-9.34;80.70;99671.90;103640;1304;22578;-59
2022/12/14 06:43:26;;;;;;;186.70;72.60;;;;;;;-9.34;80.26;99672.20;103839;1306;22431;-60
2022/12/14 06:45:57;;;;;;;236.60;90.30;;;;;;;-9.35;80.50;99669.88;103636;1305;22452;-56
2022/12/14 06:48:29;;;;;;;203.10;84.60;;;;;;;-9.35;80.44;99669.41;103585;1288;22412;-57
2022/12/14 06:51:03;;;;;;;186.80;73.80;;;;;;;-9.33;80.67;99666.20;103738;1306;25352;-59
2022/12/14 06:53:36;;;;;;;155.40;63.60;;;;;;;-9.29;80.73;99671.90;103743;1303;22477;-56
2022/12/14 06:56:13;;;;;;;132.00;53.90;;;;;;;-9.27;80.81;99669.77;103671;1282;24033;-58
2022/12/14 06:58:46;;;;;;;136.40;55.00;;;;;;;-9.24;80.48;99669.83;103792;1275;24700;-58
2022/12/14 07:01:19;;;;;;;134.50;52.30;;;;;;;-9.25;80.21;99674.05;103702;1305;21782;-58
2022/12/14 07:03:53;;;;;;;123.80;48.90;;;;;;;-9.26;80.16;99666.01;103821;1303;24283;-57
2022/12/14 07:06:27;;;;;;;125.30;48.90;;;;;;;-9.27;80.39;99663.67;103839;1291;23853;-57
2022/12/14 07:09:00;;;;;;;119.60;48.60;;;;;;;-9.27;80.43;99657.27;103717;1306;26259;-59
2022/12/14 07:11:32;;;;;;;128.40;50.10;;;;;;;-9.28;80.42;99665.36;103828;1281;25593;-59
2022/12/14 07:14:05;;;;;;;125.60;52.30;;;;;;;-9.29;80.58;99664.33;103745;1306;21776;-60
2022/12/14 07:16:37;;;;;;;151.80;60.90;;;;;;;-9.30;80.33;99666.16;103780;1306;22461;-58
2022/12/14 07:19:09;;;;;;;157.20;61.80;;;;;;;-9.32;80.38;99665.45;103855;1282;22464;-59
2022/12/14 07:21:41;;;;;;;154.80;61.20;;;;;;;-9.30;80.53;99663.39;103760;1281;21765;-57
2022/12/14 07:24:12;;;;;;;143.00;58.30;;;;;;;-9.28;80.75;99661.04;103844;1305;21677;-59
2022/12/14 07:26:45;;;;;;;138.60;50.70;;;;;;;-9.27;80.72;99653.70;103832;1306;25904;-59
2022/12/14 07:29:17;;;;;;;145.20;56.80;;;;;;;-9.26;80.82;99657.27;103814;1306;25369;-59
2022/12/14 07:31:48;;;;;;;142.40;59.60;;;;;;;-9.25;80.91;99650.58;103784;1301;22437;-58
2022/12/14 07:34:20;;;;;;;140.20;57.50;;;;;;;-9.23;80.97;99643.20;103858;1305;26009;-59
2022/12/14 07:36:53;;;;;;;148.20;57.60;;;;;;;-9.23;80.93;99639.87;103819;1282;22450;-58
2022/12/14 07:39:25;;;;;;;139.50;56.40;;;;;;;-9.22;81.07;99637.27;103245;1278;25516;-58
2022/12/14 07:41:58;;;;;;;147.20;57.60;;;;;;;-9.20;81.24;99638.23;103170;1306;21751;-59
2022/12/14 07:44:30;;;;;;;140.60;56.30;;;;;;;-9.17;81.43;99634.65;103349;1296;22466;-58
2022/12/14 07:47:03;;;;;;;135.60;56.40;;;;;;;-9.12;81.79;99633.80;103165;1278;24710;-59
2022/12/14 07:49:35;;;;;;;139.40;57.40;;;;;;;-9.05;81.78;99633.73;103025;1306;21959;-58
2022/12/14 07:52:06;;;;;;;134.40;52.80;;;;;;;-9.03;81.77;99634.61;103063;1304;22560;-58
2022/12/14 07:54:38;;;;;;;125.20;54.10;;;;;;;-9.00;82.01;99639.46;103128;1294;24416;-59
2022/12/14 07:57:10;;;;;;;143.70;56.20;;;;;;;-8.95;81.89;99637.70;103156;1278;21996;-58
2022/12/14 07:59:43;;;;;;;175.30;63.40;;;;;;;-8.92;81.88;99637.50;102995;1306;25413;-59
2022/12/14 08:02:15;;;;;;;166.30;67.00;;;;;;;-8.89;81.89;99633.53;103267;1281;22432;-58
2022/12/14 08:04:47;;;;;;;165.80;64.60;;;;;;;-8.88;81.84;99633.61;103196;1306;22450;-57
2022/12/14 08:07:18;;;;;;;144.80;61.80;;;;;;;-8.88;81.87;99631.06;103123;1282;22585;-57
2022/12/14 08:09:51;;;;;;;160.00;61.80;;;;;;;-8.88;81.99;99630.22;103175;1305;22438;-58
2022/12/14 08:12:23;;;;;;;159.20;69.80;;;;;;;-8.86;82.07;99636.27;103143;1298;23197;-59
2022/12/14 08:14:54;;;;;;;203.00;79.70;;;;;;;-8.82;82.05;99638.27;103098;1305;22539;-60
2022/12/14 08:17:26;;;;;;;171.30;69.20;;;;;;;-8.78;82.11;99637.31;103052;1281;21741;-59
2022/12/14 08:19:57;;;;;;;177.70;74.00;;;;;;;-8.75;82.02;99634.35;103064;1282;21676;-59
2022/12/14 08:22:29;;;;;;;200.80;77.00;;;;;;;-8.71;82.11;99630.45;103065;1282;22457;-59
2022/12/14 08:25:00;;;;;;;205.70;79.20;;;;;;;-8.70;81.99;99632.48;103256;1305;22437;-59
2022/12/14 08:27:33;;;;;;;207.30;82.80;;;;;;;-8.68;81.88;99633.91;103156;1291;22888;-59
2022/12/14 08:30:05;;;;;;;201.50;73.30;;;;;;;-8.66;81.91;99632.77;103144;1305;22444;-59
2022/12/14 08:32:36;;;;;;;194.70;75.10;;;;;;;-8.63;82.13;99631.89;103152;1306;22594;-58
2022/12/14 08:35:09;;;;;;;236.90;91.40;;;;;;;-8.59;82.14;99630.00;103059;1282;22514;-57
2022/12/14 08:37:41;;;;;;;315.10;118.80;;;;;;;-8.55;82.26;99635.79;103122;1282;22498;-58
2022/12/14 08:40:13;;;;;;;249.50;95.50;;;;;;;-8.51;82.17;99635.06;103070;1298;24444;-59
2022/12/14 08:42:45;;;;;;;189.40;75.80;;;;;;;-8.50;82.10;99633.92;103217;1282;26533;-57
2022/12/14 08:45:16;;;;;;;159.10;65.40;;;;;;;-8.47;82.10;99630.70;103229;1283;25260;-59
2022/12/14 08:47:50;;;;;;;144.40;62.00;;;;;;;-8.46;82.12;99628.80;103146;1306;25371;-59
2022/12/14 08:50:22;;;;;;;154.70;60.90;;;;;;;-8.46;82.26;99623.61;103227;1305;22459;-60
2022/12/14 08:52:53;;;;;;;140.20;57.80;;;;;;;-8.43;82.46;99617.45;103412;1282;22515;-55
2022/12/14 08:55:25;;;;;;;141.10;56.10;;;;;;;-8.40;82.63;99613.77;103130;1275;27017;-56
2022/12/14 08:57:57;;;;;;;142.30;56.10;;;;;;;-8.37;82.76;99610.42;103153;1306;25360;-57
2022/12/14 09:00:28;;;;;;;160.70;62.00;;;;;;;-8.33;82.88;99612.80;103196;1294;22643;-59
2022/12/14 09:02:59;;;;;;;151.50;58.80;;;;;;;-8.30;82.89;99614.98;103303;1304;22456;-59
2022/12/14 09:05:35;;;;;;;159.70;64.20;;;;;;;-8.26;82.97;99618.20;103196;1298;22458;-56
2022/12/14 09:08:08;;;;;;;136.80;58.20;;;;;;;-8.21;82.97;99621.41;103044;1297;24314;-56
2022/12/14 09:10:39;;;;;;;138.40;57.20;;;;;;;-8.16;83.04;99619.23;103198;1282;22468;-59
2022/12/14 09:13:10;;;;;;;136.40;57.90;;;;;;;-8.11;83.13;99617.96;103048;1297;22464;-56
2022/12/14 09:15:42;;;;;;;149.20;59.50;;;;;;;-8.05;83.20;99613.02;103123;1298;24469;-60
2022/12/14 09:18:13;;;;;;;153.70;63.70;;;;;;;-7.99;83.15;99611.30;103160;1284;22468;-57
2022/12/14 09:20:46;;;;;;;151.00;63.70;;;;;;;-7.92;83.25;99608.59;103131;1306;22566;-59
2022/12/14 09:23:18;;;;;;;156.00;62.00;;;;;;;-7.83;83.49;99603.80;103182;1304;22489;-57
2022/12/14 09:26:00;;;;;;;154.70;62.50;;;;;;;-7.76;83.48;99601.55;103213;1282;24375;-59
2022/12/14 09:28:35;;;;;;;167.10;67.80;;;;;;;-7.68;83.73;99590.95;102946;1306;22170;-56
2022/12/14 09:31:10;;;;;;;161.50;63.90;;;;;;;-7.58;83.66;99577.33;103081;1282;25490;-59
2022/12/14 09:33:42;;;;;;;166.30;69.90;;;;;;;-7.48;83.89;99572.54;103132;1291;25452;-59
2022/12/14 09:36:15;;;;;;;155.10;62.20;;;;;;;-7.39;84.01;99566.26;103120;1271;24173;-59
2022/12/14 09:38:48;;;;;;;157.70;65.70;;;;;;;-7.30;83.93;99564.79;103237;1305;24710;-59
2022/12/14 09:41:32;;;;;;;154.80;61.90;;;;;;;-7.21;84.02;99560.42;102987;1305;22613;-59
2022/12/14 09:44:13;;;;;;;133.30;60.20;;;;;;;-7.13;84.15;99557.39;103084;1289;24894;-59
2022/12/14 09:46:55;;;;;;;146.40;63.70;;;;;;;-7.06;84.15;99552.40;103170;1278;22961;-58
2022/12/14 09:49:32;;;;;;;161.30;63.10;;;;;;;-6.97;84.37;99545.02;103197;1274;22127;-59
2022/12/14 09:52:07;;;;;;;148.30;62.10;;;;;;;-6.87;84.27;99536.23;103117;1282;22536;-60
2022/12/14 09:54:40;;;;;;;145.40;59.40;;;;;;;-6.81;84.14;99532.08;103123;1282;22000;-56
2022/12/14 09:57:21;;;;;;;148.60;61.50;;;;;;;-6.76;84.18;99531.48;103120;1299;22740;-56
2022/12/14 09:59:54;;;;;;;149.50;60.50;;;;;;;-6.70;84.09;99529.56;103133;1288;22502;-59
2022/12/14 10:02:41;;;;;;;142.40;57.40;;;;;;;-6.64;84.03;99527.66;103203;1282;22705;-56
2022/12/14 10:05:29;;;;;;;156.60;62.90;;;;;;;-6.58;84.02;99526.52;103054;1305;22472;-59
2022/12/14 10:08:10;;;;;;;153.80;61.80;;;;;;;-6.50;84.16;99530.90;103121;1306;23086;-59
2022/12/14 10:10:50;;;;;;;159.00;64.40;;;;;;;-6.42;84.20;99521.61;103092;1306;22605;-57
2022/12/14 10:13:37;;;;;;;154.90;66.40;;;;;;;-6.34;84.17;99510.23;103093;1306;22603;-59
2022/12/14 10:16:19;;;;;;;144.90;63.90;;;;;;;-6.25;84.41;99503.98;103021;1281;22618;-60
2022/12/14 10:19:03;;;;;;;148.80;64.40;;;;;;;-6.16;84.56;99497.79;103040;1304;22513;-60
2022/12/14 10:21:49;;;;;;;155.70;62.40;;;;;;;-6.07;84.61;99494.31;103054;1282;25544;-56
2022/12/14 10:24:25;;;;;;;144.00;58.50;;;;;;;-5.98;84.60;99492.77;103107;1274;24266;-59
2022/12/14 10:26:57;;;;;;;136.30;61.00;;;;;;;-5.87;84.69;99486.27;103131;1306;21854;-59
2022/12/14 10:29:36;;;;;;;147.00;61.00;;;;;;;-5.79;84.79;99477.29;103097;1283;22555;-59
2022/12/14 10:32:19;;;;;;;113.30;52.70;;;;;;;-5.68;84.85;99473.27;103161;1282;22611;-59
2022/12/14 10:34:52;;;;;;;130.80;54.90;;;;;;;-5.58;84.93;99471.08;103014;1305;25706;-58
2022/12/14 10:37:33;;;;;;;127.50;51.30;;;;;;;-5.49;84.81;99468.50;103146;1282;22569;-58
2022/12/14 10:40:21;;;;;;;117.80;51.30;;;;;;;-5.40;84.60;99459.55;103120;1282;22920;-60
2022/12/14 10:43:05;;;;;;;108.60;47.60;;;;;;;-5.31;84.57;99459.00;103084;1305;25597;-58
2022/12/14 10:45:45;;;;;;;119.10;47.80;;;;;;;-5.20;84.65;99458.13;102989;1298;22887;-59
2022/12/14 10:48:45;;;;;;;112.50;47.20;;;;;;;-5.12;84.52;99450.95;103100;1275;25380;-58
2022/12/14 10:51:22;;;;;;;121.30;49.30;;;;;;;-5.04;84.41;99441.73;103136;1281;22657;-59
2022/12/14 10:53:58;;;;;;;121.70;50.30;;;;;;;-4.97;84.37;99444.44;103113;1299;23300;-59
2022/12/14 10:56:33;;;;;;;118.10;48.40;;;;;;;-4.91;84.15;99436.64;103301;1305;25559;-60
2022/12/14 10:59:29;;;;;;;122.00;50.20;;;;;;;-4.86;84.01;99427.21;103304;1288;24142;-57
2022/12/14 11:02:06;;;;;;;126.60;50.70;;;;;;;-4.81;84.13;99418.39;103469;1305;25312;-60
2022/12/14 11:04:39;;;;;;;110.80;46.00;;;;;;;-4.75;84.10;99410.45;103513;1306;23968;-59
2022/12/14 11:07:13;;;;;;;112.50;46.90;;;;;;;-4.70;84.12;99410.41;104225;1278;22595;-60
2022/12/14 11:09:47;;;;;;;114.10;47.00;;;;;;;-4.64;84.02;99411.64;103757;1305;25425;-58
2022/12/14 11:12:24;;;;;;;109.80;47.90;;;;;;;-4.60;83.96;99402.97;103584;1305;22595;-59
2022/12/14 11:14:58;;;;;;;109.50;46.60;;;;;;;-4.57;83.86;99396.73;103599;1274;22567;-59
2022/12/14 11:17:35;;;;;;;118.70;48.40;;;;;;;-4.56;83.76;99391.80;103749;1287;26715;-59
2022/12/14 11:20:19;;;;;;;111.00;48.70;;;;;;;-4.53;83.82;99384.80;103691;1282;24268;-60
2022/12/14 11:22:53;;;;;;;109.00;46.20;;;;;;;-4.50;83.82;99382.45;103669;1306;22500;-58
2022/12/14 11:25:35;;;;;;;109.00;45.50;;;;;;;-4.47;83.81;99380.95;103581;1294;24012;-59
2022/12/14 11:28:28;;;;;;;114.00;46.50;;;;;;;-4.45;83.75;99378.36;103650;1306;22754;-59
2022/12/14 11:31:04;;;;;;;109.80;45.60;;;;;;;-4.42;83.73;99365.41;103750;1294;22801;-59
2022/12/14 11:33:39;;;;;;;134.80;57.10;;;;;;;-4.40;83.79;99361.52;103685;1306;22488;-59
2022/12/14 11:36:23;;;;;;;142.80;56.20;;;;;;;-4.36;83.68;99358.22;103619;1300;22592;-58
2022/12/14 11:38:59;;;;;;;130.00;52.50;;;;;;;-4.31;83.77;99353.75;103649;1303;22901;-58
2022/12/14 11:41:34;;;;;;;113.10;47.60;;;;;;;-4.27;83.66;99346.55;103754;1291;26783;-59
2022/12/14 11:44:21;;;;;;;106.40;45.80;;;;;;;-4.26;83.60;99344.98;103708;1297;22695;-59
2022/12/14 11:47:01;;;;;;;100.90;45.70;;;;;;;-4.23;83.43;99342.86;103587;1306;22600;-58
2022/12/14 11:49:45;;;;;;;109.80;46.40;;;;;;;-4.17;83.70;99334.64;103553;1274;25778;-60
2022/12/14 11:52:19;;;;;;;103.10;43.50;;;;;;;-4.14;83.65;99330.09;103579;1275;24370;-60